createdAt,value
2023-04-25T00:00:21.796Z,25.25
2023-04-25T00:02:49.687Z,26.40
2023-04-25T00:05:17.927Z,21.83
2023-04-25T00:07:45.389Z,27.67
2023-04-25T00:10:12.861Z,26.40
2023-04-25T00:12:40.697Z,26.00
2023-04-25T00:15:42.709Z,23.10
2023-04-25T00:18:10.155Z,27.42
2023-04-25T00:20:37.515Z,26.42
2023-04-25T00:23:04.833Z,27.83
2023-04-25T00:25:32.154Z,24.08
2023-04-25T00:27:59.424Z,26.30
2023-04-25T00:30:26.739Z,26.40
2023-04-25T00:32:54.379Z,23.35
2023-04-25T00:35:22.210Z,24.60
2023-04-25T00:37:49.562Z,27.60
2023-04-25T00:40:16.888Z,24.80
2023-04-25T00:42:44.188Z,27.23
2023-04-25T00:45:15.286Z,25.42
2023-04-25T00:47:43.209Z,33.90
2023-04-25T00:50:11.492Z,31.05
2023-04-25T00:52:44.656Z,29.02
2023-04-25T00:55:13.664Z,29.55
2023-04-25T00:57:41.472Z,30.00
2023-04-25T01:00:10.847Z,38.53
2023-04-25T01:02:38.417Z,30.45
2023-04-25T01:05:06.146Z,31.75
2023-04-25T01:07:33.473Z,27.98
2023-04-25T01:10:01.006Z,27.38
2023-04-25T01:12:28.848Z,29.85
2023-04-25T01:14:56.249Z,25.25
2023-04-25T01:17:23.623Z,25.92
2023-04-25T01:19:51.732Z,26.98
2023-04-25T01:22:19.035Z,27.48
2023-04-25T01:24:47.410Z,24.25
2023-04-25T01:27:14.943Z,28.73
2023-04-25T01:29:42.564Z,32.08
2023-04-25T01:32:10.179Z,25.65
2023-04-25T01:34:37.536Z,26.23
2023-04-25T01:37:04.793Z,28.15
2023-04-25T01:39:32.300Z,29.77
2023-04-25T01:42:01.048Z,28.42
2023-04-25T01:44:28.479Z,22.92
2023-04-25T01:46:55.977Z,26.98
2023-04-25T01:49:23.289Z,27.67
2023-04-25T01:51:51.058Z,28.35
2023-04-25T01:54:19.920Z,24.05
2023-04-25T01:56:52.121Z,25.52
2023-04-25T01:59:22.839Z,26.65
2023-04-25T02:01:50.284Z,25.60
2023-04-25T02:04:24.380Z,24.48
2023-04-25T02:06:52.162Z,30.67
2023-04-25T02:09:19.685Z,26.33
2023-04-25T02:11:52.301Z,26.27
2023-04-25T02:14:25.627Z,24.92
2023-04-25T02:17:01.039Z,25.20
2023-04-25T02:19:28.479Z,27.25
2023-04-25T02:21:56.067Z,25.52
2023-04-25T02:24:23.737Z,26.03
2023-04-25T02:26:51.039Z,28.10
2023-04-25T02:29:18.689Z,24.97
2023-04-25T02:31:46.085Z,25.23
2023-04-25T02:34:13.483Z,24.10
2023-04-25T02:36:40.809Z,24.97
2023-04-25T02:39:08.147Z,25.07
2023-04-25T02:41:35.626Z,25.90
2023-04-25T02:44:02.989Z,24.57
2023-04-25T02:46:39.047Z,24.10
2023-04-25T02:49:07.502Z,22.17
2023-04-25T02:51:35.675Z,22.63
2023-04-25T02:54:03.278Z,22.90
2023-04-25T02:56:33.897Z,23.60
2023-04-25T02:59:01.249Z,20.67
2023-04-25T03:01:29.708Z,23.07
2023-04-25T03:03:57.209Z,22.43
2023-04-25T03:06:25.719Z,22.90
2023-04-25T03:08:53.524Z,24.40
2023-04-25T03:11:21.316Z,21.60
2023-04-25T03:13:49.085Z,26.23
2023-04-25T03:16:17.173Z,22.60
2023-04-25T03:18:44.622Z,22.70
2023-04-25T03:21:11.978Z,23.43
2023-04-25T03:23:39.294Z,24.63
2023-04-25T03:26:08.339Z,25.10
2023-04-25T03:28:35.767Z,22.63
2023-04-25T03:31:03.080Z,23.10
2023-04-25T03:33:31.458Z,23.43
2023-04-25T03:35:58.998Z,26.07
2023-04-25T03:38:26.376Z,24.57
2023-04-25T03:40:54.126Z,20.07
2023-04-25T03:43:26.362Z,21.70
2023-04-25T03:46:02.098Z,21.47
2023-04-25T03:48:29.492Z,20.83
2023-04-25T03:50:56.892Z,22.40
2023-04-25T03:53:30.308Z,19.73
2023-04-25T03:56:16.094Z,21.73
2023-04-25T03:58:45.892Z,22.60
2023-04-25T04:01:14.707Z,21.27
2023-04-25T04:03:43.026Z,25.07
2023-04-25T04:06:11.753Z,23.27
2023-04-25T04:08:45.981Z,21.23
2023-04-25T04:11:13.285Z,21.53
2023-04-25T04:13:40.801Z,20.17
2023-04-25T04:16:08.986Z,23.33
2023-04-25T04:18:36.825Z,18.97
2023-04-25T04:21:05.102Z,22.93
2023-04-25T04:23:37.021Z,20.73
2023-04-25T04:26:06.137Z,18.43
2023-04-25T04:28:55.312Z,18.90
2023-04-25T04:31:58.197Z,18.27
2023-04-25T04:34:26.772Z,21.10
2023-04-25T04:36:54.366Z,18.87
2023-04-25T04:39:22.338Z,19.23
2023-04-25T04:42:02.910Z,19.77
2023-04-25T04:44:40.033Z,21.07
2023-04-25T04:47:26.941Z,18.93
2023-04-25T04:50:14.190Z,20.47
2023-04-25T04:53:00.089Z,18.53
2023-04-25T04:55:47.330Z,18.47
2023-04-25T04:58:32.828Z,26.07
2023-04-25T05:01:09.974Z,18.83
2023-04-25T05:04:02.242Z,20.40
2023-04-25T05:06:46.892Z,18.27
2023-04-25T05:09:45.991Z,19.33
2023-04-25T05:12:45.966Z,19.63
2023-04-25T05:45:24.156Z,21.17
2023-04-25T05:48:34.549Z,23.23
2023-04-25T05:51:38.069Z,20.40
2023-04-25T05:54:21.549Z,19.27
2023-04-25T05:56:48.944Z,20.50
2023-04-25T05:59:16.593Z,20.90
2023-04-25T06:01:44.384Z,21.00
2023-04-25T06:04:12.100Z,20.83
2023-04-25T06:06:39.785Z,22.77
2023-04-25T06:09:07.229Z,23.60
2023-04-25T06:11:36.658Z,21.70
2023-04-25T06:14:04.472Z,22.30
2023-04-25T06:16:36.104Z,23.27
2023-04-25T06:19:03.520Z,20.67
2023-04-25T06:21:30.964Z,20.67
2023-04-25T06:24:01.321Z,20.53
2023-04-25T06:26:31.918Z,22.67
2023-04-25T06:28:59.333Z,25.33
2023-04-25T06:31:27.016Z,22.23
2023-04-25T06:33:56.514Z,23.97
2023-04-25T06:36:27.140Z,21.93
2023-04-25T06:38:58.711Z,21.90
2023-04-25T06:41:27.311Z,23.73
2023-04-25T06:43:58.741Z,17.67
2023-04-25T06:46:31.323Z,19.13
2023-04-25T06:49:00.247Z,19.40
2023-04-25T06:51:30.147Z,18.47
2023-04-25T06:53:57.944Z,17.77
2023-04-25T06:56:32.014Z,16.87
2023-04-25T06:59:05.140Z,18.27
2023-04-25T07:01:41.266Z,16.63
2023-04-25T07:04:27.716Z,20.20
2023-04-25T07:07:18.359Z,18.13
2023-04-25T07:09:53.543Z,18.27
2023-04-25T07:12:22.032Z,20.17
2023-04-25T07:14:49.607Z,20.53
2023-04-25T07:17:17.493Z,23.57
2023-04-25T07:19:45.057Z,19.77
2023-04-25T07:22:12.414Z,24.23
2023-04-25T07:24:42.454Z,23.37
2023-04-25T07:27:13.825Z,20.77
2023-04-25T07:30:11.476Z,20.73
2023-04-25T07:32:40.644Z,16.70
2023-04-25T07:35:08.855Z,18.17
2023-04-25T07:37:36.995Z,17.45
2023-04-25T07:40:11.352Z,19.63
2023-04-25T07:45:33.807Z,17.70
2023-04-25T07:48:01.737Z,17.93
2023-04-25T07:50:31.756Z,20.00
2023-04-25T07:52:59.375Z,17.27
2023-04-25T07:55:32.884Z,16.13
2023-04-25T07:58:06.687Z,15.93
2023-04-25T08:00:34.881Z,15.13
2023-04-25T08:03:22.647Z,19.10
2023-04-25T08:05:51.366Z,14.20
2023-04-25T08:08:20.153Z,15.90
2023-04-25T08:10:49.652Z,15.20
2023-04-25T08:13:18.100Z,15.13
2023-04-25T08:15:46.671Z,17.30
2023-04-25T08:18:16.985Z,20.10
2023-04-25T08:20:46.170Z,21.70
2023-04-25T08:23:15.421Z,28.37
2023-04-25T08:25:52.800Z,23.50
2023-04-25T08:28:23.920Z,23.93
2023-04-25T08:30:51.596Z,22.83
2023-04-25T08:33:20.267Z,18.70
2023-04-25T08:36:08.318Z,17.50
2023-04-25T08:38:35.999Z,19.50
2023-04-25T08:41:06.961Z,16.37
2023-04-25T08:43:34.852Z,15.07
2023-04-25T08:46:02.973Z,12.93
2023-04-25T08:48:48.522Z,13.80
2023-04-25T08:51:29.051Z,13.33
2023-04-25T08:54:02.480Z,17.90
2023-04-25T08:56:43.675Z,15.97
2023-04-25T08:59:11.463Z,15.20
2023-04-25T09:01:39.648Z,18.87
2023-04-25T09:04:07.830Z,16.93
2023-04-25T09:06:35.907Z,15.67
2023-04-25T09:09:06.157Z,15.23
2023-04-25T09:11:34.103Z,16.67
2023-04-25T09:14:26.137Z,17.23
2023-04-25T09:17:03.514Z,13.90
2023-04-25T09:19:52.721Z,13.63
2023-04-25T09:22:32.687Z,14.80
2023-04-25T09:25:03.836Z,14.57
2023-04-25T09:27:31.376Z,16.00
2023-04-25T09:30:07.944Z,18.07
2023-04-25T09:32:58.582Z,17.37
2023-04-25T09:35:30.042Z,18.40
2023-04-25T09:38:01.244Z,20.47
2023-04-25T09:40:48.444Z,20.43
2023-04-25T09:43:25.871Z,21.30
2023-04-25T09:45:56.746Z,20.07
2023-04-25T09:48:26.395Z,19.53
2023-04-25T09:51:16.534Z,18.60
2023-04-25T09:53:47.878Z,20.00
2023-04-25T09:56:23.432Z,22.37
2023-04-25T09:58:52.610Z,20.30
2023-04-25T10:01:21.026Z,21.70
2023-04-25T10:04:03.426Z,20.60
2023-04-25T10:06:44.687Z,22.17
2023-04-25T10:09:13.487Z,22.60
2023-04-25T10:11:41.272Z,22.30
2023-04-25T10:14:08.928Z,23.20
2023-04-25T10:16:37.123Z,24.87
2023-04-25T10:19:05.553Z,25.33
2023-04-25T10:21:36.624Z,26.27
2023-04-25T10:24:12.345Z,29.10
2023-04-25T10:26:40.012Z,29.93
2023-04-25T10:29:07.297Z,27.70
2023-04-25T10:31:35.498Z,30.20
2023-04-25T10:34:04.394Z,27.10
2023-04-25T10:36:33.363Z,31.40
2023-04-25T10:39:07.881Z,33.37
2023-04-25T10:41:49.995Z,29.47
2023-04-25T10:44:17.512Z,33.27
2023-04-25T10:46:49.485Z,28.20
2023-04-25T10:49:35.798Z,31.07
2023-04-25T10:52:18.510Z,29.60
2023-04-25T10:54:56.499Z,27.17
2023-04-25T10:57:30.629Z,28.60
2023-04-25T11:00:02.073Z,26.13
2023-04-25T11:02:31.001Z,26.67
2023-04-25T11:05:01.175Z,29.20
2023-04-25T11:07:29.580Z,26.67
2023-04-25T11:09:59.099Z,27.77
2023-04-25T11:12:31.461Z,28.03
2023-04-25T11:15:03.812Z,26.70
2023-04-25T11:17:31.447Z,30.17
2023-04-25T11:19:59.311Z,25.27
2023-04-25T11:22:28.361Z,25.63
2023-04-25T11:24:56.116Z,25.97
2023-04-25T11:27:25.969Z,27.83
2023-04-25T11:29:53.424Z,29.20
2023-04-25T11:32:21.521Z,25.50
2023-04-25T11:37:38.104Z,24.97
2023-04-25T11:40:07.614Z,23.43
2023-04-25T11:42:38.760Z,21.83
2023-04-25T11:45:09.026Z,26.17
2023-04-25T11:47:37.222Z,22.93
2023-04-25T11:50:06.207Z,23.33
2023-04-25T11:52:43.968Z,23.17
2023-04-25T11:55:36.462Z,22.83
2023-04-25T11:58:05.329Z,21.80
2023-04-25T12:00:33.152Z,22.23
2023-04-25T12:03:03.157Z,23.50
2023-04-25T12:05:34.998Z,19.93
2023-04-25T12:08:12.929Z,20.23
2023-04-25T12:10:44.356Z,20.77
2023-04-25T12:13:23.854Z,21.60
2023-04-25T12:15:51.533Z,18.00
2023-04-25T12:18:22.776Z,29.83
2023-04-25T12:20:50.168Z,17.23
2023-04-25T12:23:17.650Z,21.60
2023-04-25T12:25:48.243Z,15.93
2023-04-25T12:28:31.837Z,21.33
2023-04-25T12:31:07.307Z,16.67
2023-04-25T12:33:36.609Z,22.23
2023-04-25T12:36:12.718Z,16.00
2023-04-25T12:38:41.968Z,15.73
2023-04-25T12:41:11.393Z,18.30
2023-04-25T12:43:39.189Z,14.20
2023-04-25T12:46:09.605Z,15.03
2023-04-25T12:48:37.273Z,17.40
2023-04-25T12:51:07.150Z,17.40
2023-04-25T12:53:37.638Z,13.77
2023-04-25T12:56:05.199Z,15.30
2023-04-25T12:58:34.391Z,12.70
2023-04-25T13:01:01.878Z,12.83
2023-04-25T13:03:29.730Z,12.87
2023-04-25T13:05:57.248Z,14.23
2023-04-25T13:08:25.362Z,14.37
2023-04-25T13:10:56.049Z,13.43
2023-04-25T13:13:23.493Z,12.37
2023-04-25T13:15:50.910Z,13.40
2023-04-25T13:18:18.385Z,14.97
2023-04-25T13:20:47.210Z,15.23
2023-04-25T13:23:14.596Z,15.23
2023-04-25T13:25:42.179Z,12.87
2023-04-25T13:28:09.693Z,14.60
2023-04-25T13:30:37.346Z,13.27
2023-04-25T13:33:04.879Z,12.70
2023-04-25T13:35:32.747Z,12.20
2023-04-25T13:38:00.167Z,11.70
2023-04-25T13:40:28.085Z,13.13
2023-04-25T13:42:59.709Z,16.90
2023-04-25T13:45:27.864Z,13.30
2023-04-25T13:47:55.249Z,12.07
2023-04-25T13:50:25.466Z,12.03
2023-04-25T13:52:52.848Z,12.60
2023-04-25T13:55:20.280Z,12.07
2023-04-25T13:57:47.801Z,12.83
2023-04-25T14:00:15.908Z,12.17
2023-04-25T14:02:43.395Z,13.03
2023-04-25T14:05:12.419Z,14.10
2023-04-25T14:07:39.896Z,11.23
2023-04-25T14:10:07.989Z,9.87
2023-04-25T14:12:35.469Z,12.27
2023-04-25T14:15:18.392Z,11.17
2023-04-25T14:17:47.006Z,9.37
2023-04-25T14:20:14.829Z,9.63
2023-04-25T14:22:44.757Z,11.53
2023-04-25T14:25:12.193Z,12.27
2023-04-25T14:27:39.496Z,11.57
2023-04-25T14:30:16.258Z,12.70
2023-04-25T14:32:43.790Z,11.53
2023-04-25T14:35:14.987Z,10.80
2023-04-25T14:40:30.115Z,10.90
2023-04-25T14:42:57.469Z,12.90
2023-04-25T14:45:26.875Z,12.45
2023-04-25T14:47:54.321Z,11.57
2023-04-25T14:50:21.823Z,12.10
2023-04-25T14:52:49.171Z,12.80
2023-04-25T14:55:16.650Z,13.53
2023-04-25T14:57:43.968Z,13.03
2023-04-25T15:00:13.292Z,11.77
2023-04-25T15:02:40.869Z,16.03
2023-04-25T15:05:09.657Z,11.37
2023-04-25T15:07:37.051Z,11.43
2023-04-25T15:10:04.588Z,14.23
2023-04-25T15:12:35.292Z,12.13
2023-04-25T15:15:03.156Z,14.23
2023-04-25T15:17:35.602Z,12.43
2023-04-25T15:20:03.037Z,15.27
2023-04-25T15:22:31.587Z,14.17
2023-04-25T15:25:00.248Z,14.80
2023-04-25T15:27:28.501Z,15.63
2023-04-25T15:29:55.987Z,16.10
2023-04-25T15:32:24.695Z,14.33
2023-04-25T15:34:52.347Z,15.97
2023-04-25T15:37:20.054Z,14.73
2023-04-25T15:39:47.688Z,14.37
2023-04-25T15:42:15.056Z,13.87
2023-04-25T15:44:43.215Z,15.10
2023-04-25T15:47:10.961Z,15.27
2023-04-25T15:49:39.581Z,15.33
2023-04-25T15:52:11.600Z,15.53
2023-04-25T15:54:42.256Z,14.33
2023-04-25T15:57:13.283Z,15.90
2023-04-25T15:59:40.659Z,13.57
2023-04-25T16:02:08.829Z,15.43
2023-04-25T16:04:38.340Z,14.93
2023-04-25T16:07:08.377Z,13.70
2023-04-25T16:09:38.252Z,15.63
2023-04-25T16:12:05.930Z,13.20
2023-04-25T16:14:34.022Z,13.97
2023-04-25T16:17:02.256Z,14.47
2023-04-25T16:19:30.490Z,13.07
2023-04-25T16:21:58.191Z,13.67
2023-04-25T16:24:25.531Z,14.73
2023-04-25T16:26:53.908Z,12.77
2023-04-25T16:29:21.434Z,14.33
2023-04-25T16:31:49.855Z,14.60
2023-04-25T16:34:17.639Z,13.00
2023-04-25T16:36:44.990Z,12.23
2023-04-25T16:39:13.538Z,13.23
2023-04-25T16:41:41.485Z,12.33
2023-04-25T16:44:09.215Z,12.87
2023-04-25T16:46:36.729Z,11.40
2023-04-25T16:49:07.777Z,13.50
2023-04-25T16:51:36.665Z,11.33
2023-04-25T16:54:04.144Z,11.73
2023-04-25T16:56:31.570Z,11.57
2023-04-25T16:58:59.029Z,12.73
2023-04-25T17:01:28.661Z,12.00
2023-04-25T17:03:58.725Z,14.27
2023-04-25T17:06:27.516Z,13.73
2023-04-25T17:08:55.808Z,13.93
2023-04-25T17:11:23.252Z,15.27
2023-04-25T17:13:51.126Z,12.90
2023-04-25T17:20:08.498Z,14.63
2023-04-25T17:22:38.731Z,14.17
2023-04-25T17:25:08.656Z,14.73
2023-04-25T17:27:36.733Z,14.33
2023-04-25T17:30:05.255Z,13.33
2023-04-25T17:32:32.691Z,14.50
2023-04-25T17:35:00.362Z,14.57
2023-04-25T17:37:28.635Z,14.67
2023-04-25T17:39:58.888Z,17.97
2023-04-25T17:42:26.299Z,14.17
2023-04-25T17:44:55.575Z,13.80
2023-04-25T17:47:23.911Z,15.43
2023-04-25T17:49:51.609Z,13.70
2023-04-25T17:52:21.642Z,14.50
2023-04-25T17:54:49.783Z,16.07
2023-04-25T17:57:17.243Z,18.30
2023-04-25T17:59:44.618Z,13.97
2023-04-25T18:02:12.019Z,15.20
2023-04-25T18:04:39.538Z,13.07
2023-04-25T18:07:07.518Z,15.70
2023-04-25T18:09:35.225Z,16.00
2023-04-25T18:12:03.712Z,17.73
2023-04-25T18:14:31.721Z,14.60
2023-04-25T18:17:00.078Z,14.83
2023-04-25T18:19:27.443Z,15.60
2023-04-25T18:21:56.140Z,15.53
2023-04-25T18:24:26.325Z,18.73
2023-04-25T18:26:55.402Z,15.77
2023-04-25T18:31:56.810Z,15.40
2023-04-25T18:34:26.711Z,17.03
2023-04-25T18:36:56.345Z,20.33
2023-04-25T18:39:24.555Z,17.07
2023-04-25T18:41:58.693Z,18.03
2023-04-25T18:44:28.559Z,17.93
2023-04-25T18:46:55.844Z,18.83
2023-04-25T18:49:23.319Z,23.17
2023-04-25T18:51:51.254Z,18.77
2023-04-25T18:54:18.557Z,21.53
2023-04-25T18:56:46.829Z,20.97
2023-04-25T18:59:15.570Z,20.17
2023-04-25T19:01:43.521Z,20.63
2023-04-25T19:04:11.710Z,20.67
2023-04-25T19:06:39.174Z,22.30
2023-04-25T19:09:07.717Z,18.57
2023-04-25T19:11:35.129Z,20.03
2023-04-25T19:14:02.814Z,18.50
2023-04-25T19:16:30.648Z,20.53
2023-04-25T19:18:58.084Z,17.13
2023-04-25T19:21:25.688Z,22.13
2023-04-25T19:23:54.375Z,20.70
2023-04-25T19:26:22.458Z,21.90
2023-04-25T19:29:03.833Z,22.63
2023-04-25T19:31:31.467Z,18.37
2023-04-25T19:33:59.284Z,20.03
2023-04-25T19:36:27.874Z,18.87
2023-04-25T19:39:00.897Z,19.57
2023-04-25T19:41:28.755Z,25.47
2023-04-25T19:43:56.106Z,20.83
2023-04-25T19:46:23.752Z,22.43
2023-04-25T19:48:52.013Z,23.40
2023-04-25T19:51:19.353Z,19.57
2023-04-25T19:53:46.751Z,24.07
2023-04-25T19:56:14.137Z,20.03
2023-04-25T19:58:41.586Z,21.10
2023-04-25T20:01:09.028Z,22.47
2023-04-25T20:03:36.548Z,22.40
2023-04-25T20:06:04.154Z,21.60
2023-04-25T20:08:31.478Z,21.70
2023-04-25T20:10:58.802Z,22.13
2023-04-25T20:13:26.120Z,25.27
2023-04-25T20:15:53.469Z,22.23
2023-04-25T20:18:21.577Z,29.73
2023-04-25T20:20:48.942Z,22.90
2023-04-25T20:23:16.247Z,23.73
2023-04-25T20:25:43.658Z,23.03
2023-04-25T20:28:11.128Z,23.07
2023-04-25T20:30:39.270Z,22.53
2023-04-25T20:33:07.551Z,24.00
2023-04-25T20:35:35.102Z,20.83
2023-04-25T20:38:02.592Z,20.57
2023-04-25T20:40:29.897Z,20.53
2023-04-25T20:42:57.329Z,19.70
2023-04-25T20:45:29.943Z,20.30
2023-04-25T20:47:57.539Z,21.87
2023-04-25T20:50:25.343Z,21.27
2023-04-25T20:52:53.350Z,19.83
2023-04-25T20:55:20.712Z,21.60
2023-04-25T20:57:48.084Z,19.47
2023-04-25T21:00:20.946Z,17.47
2023-04-25T21:02:48.476Z,18.17
2023-04-25T21:05:16.073Z,18.23
2023-04-25T21:07:43.593Z,16.83
2023-04-25T21:10:11.049Z,18.13
2023-04-25T21:12:38.403Z,18.33
2023-04-25T21:15:05.904Z,18.10
2023-04-25T21:17:33.211Z,18.00
2023-04-25T21:20:00.621Z,15.30
2023-04-25T21:22:28.024Z,17.93
2023-04-25T21:24:57.204Z,18.17
2023-04-25T21:27:24.547Z,20.20
2023-04-25T21:29:51.826Z,19.30
2023-04-25T21:32:21.894Z,19.33
2023-04-25T21:34:49.248Z,22.40
2023-04-25T21:37:16.542Z,21.43
2023-04-25T21:39:43.824Z,21.80
2023-04-25T21:42:13.247Z,27.73
2023-04-25T21:44:40.541Z,25.80
2023-04-25T21:47:08.021Z,27.73
2023-04-25T21:49:35.414Z,29.63
2023-04-25T21:52:03.051Z,27.90
2023-04-25T21:54:30.675Z,28.27
2023-04-25T21:56:58.024Z,30.40
2023-04-25T21:59:25.647Z,28.80
2023-04-25T22:01:53.116Z,29.40
2023-04-25T22:04:20.798Z,28.50
2023-04-25T22:06:48.389Z,27.13
2023-04-25T22:09:16.439Z,27.53
2023-04-25T22:11:43.769Z,27.53
2023-04-25T22:14:11.791Z,30.27
2023-04-25T22:16:40.275Z,28.57
2023-04-25T22:19:09.721Z,26.40
2023-04-25T22:21:37.023Z,25.00
2023-04-25T22:24:06.340Z,21.27
2023-04-25T22:26:34.453Z,20.30
2023-04-25T22:29:02.667Z,18.90
2023-04-25T22:31:30.450Z,19.00
2023-04-25T22:33:58.069Z,16.53
2023-04-25T22:36:25.383Z,16.17
2023-04-25T22:38:53.406Z,15.70
2023-04-25T22:41:21.616Z,14.53
2023-04-25T22:43:48.897Z,16.57
2023-04-25T22:46:17.737Z,17.57
2023-04-25T22:48:46.122Z,16.83
2023-04-25T22:51:14.151Z,14.03
2023-04-25T22:53:42.666Z,20.70
2023-04-25T22:56:11.809Z,15.17
2023-04-25T22:58:43.462Z,16.80
2023-04-25T23:01:12.369Z,13.70
2023-04-25T23:03:41.140Z,11.00
2023-04-25T23:06:08.496Z,17.43
2023-04-25T23:08:35.857Z,11.80
2023-04-25T23:11:07.651Z,16.63
2023-04-25T23:13:37.924Z,13.27
2023-04-25T23:16:06.465Z,17.43
2023-04-25T23:18:33.944Z,17.27
2023-04-25T23:21:02.071Z,15.67
2023-04-25T23:23:29.818Z,16.27
2023-04-25T23:25:57.816Z,18.03
2023-04-25T23:28:25.164Z,17.57
2023-04-25T23:30:52.520Z,18.67
2023-04-25T23:33:20.081Z,19.03
2023-04-25T23:35:48.370Z,14.23
2023-04-25T23:38:16.557Z,16.57
2023-04-25T23:40:43.930Z,15.33
2023-04-25T23:43:11.222Z,17.67
2023-04-25T23:45:38.495Z,16.97
2023-04-25T23:48:06.083Z,18.63
2023-04-25T23:50:33.391Z,15.40
2023-04-25T23:53:00.881Z,15.20
2023-04-25T23:55:28.323Z,15.20
2023-04-25T23:57:55.638Z,10.90
